sensor_id;sensor_type;location;lat;lon;timestamp;temperature;humidity
45807;DHT22;31507;51.494;7.518;2023-03-20T00:00:36;9.30;99.90
45807;DHT22;31507;51.494;7.518;2023-03-20T00:03:02;9.20;99.90
45807;DHT22;31507;51.494;7.518;2023-03-20T00:05:29;9.10;99.90
45807;DHT22;31507;51.494;7.518;2023-03-20T00:07:55;9.20;99.90
45807;DHT22;31507;51.494;7.518;2023-03-20T00:10:26;9.00;99.90
45807;DHT22;31507;51.494;7.518;2023-03-20T00:12:53;9.10;99.90
45807;DHT22;31507;51.494;7.518;2023-03-20T00:15:36;9.00;99.90
45807;DHT22;31507;51.494;7.518;2023-03-20T00:18:25;9.00;99.90
45807;DHT22;31507;51.494;7.518;2023-03-20T00:20:51;9.00;99.90
45807;DHT22;31507;51.494;7.518;2023-03-20T00:23:18;9.00;99.90
45807;DHT22;31507;51.494;7.518;2023-03-20T00:25:44;8.90;99.90
45807;DHT22;31507;51.494;7.518;2023-03-20T00:28:37;8.90;99.90
45807;DHT22;31507;51.494;7.518;2023-03-20T00:33:47;8.90;99.90
45807;DHT22;31507;51.494;7.518;2023-03-20T00:36:12;8.80;99.90
45807;DHT22;31507;51.494;7.518;2023-03-20T00:38:38;8.80;99.90
45807;DHT22;31507;51.494;7.518;2023-03-20T00:41:35;8.70;99.90
45807;DHT22;31507;51.494;7.518;2023-03-20T00:44:29;8.70;99.90
45807;DHT22;31507;51.494;7.518;2023-03-20T00:46:58;8.70;99.90
45807;DHT22;31507;51.494;7.518;2023-03-20T00:49:27;8.70;99.90
45807;DHT22;31507;51.494;7.518;2023-03-20T00:51:53;8.70;99.90
45807;DHT22;31507;51.494;7.518;2023-03-20T00:54:19;8.70;99.90
45807;DHT22;31507;51.494;7.518;2023-03-20T00:59:31;8.60;99.90
45807;DHT22;31507;51.494;7.518;2023-03-20T01:01:58;8.60;99.90
45807;DHT22;31507;51.494;7.518;2023-03-20T01:04:30;8.60;99.90
45807;DHT22;31507;51.494;7.518;2023-03-20T01:06:58;8.60;99.90
45807;DHT22;31507;51.494;7.518;2023-03-20T01:09:24;8.50;99.90
45807;DHT22;31507;51.494;7.518;2023-03-20T01:11:49;8.50;99.90
45807;DHT22;31507;51.494;7.518;2023-03-20T01:14:15;8.50;99.90
45807;DHT22;31507;51.494;7.518;2023-03-20T01:16:42;8.40;99.90
45807;DHT22;31507;51.494;7.518;2023-03-20T01:19:12;8.30;99.90
45807;DHT22;31507;51.494;7.518;2023-03-20T01:21:39;8.20;99.90
45807;DHT22;31507;51.494;7.518;2023-03-20T01:24:05;8.20;99.90
45807;DHT22;31507;51.494;7.518;2023-03-20T01:26:39;8.20;99.90
45807;DHT22;31507;51.494;7.518;2023-03-20T01:29:18;8.10;99.90
45807;DHT22;31507;51.494;7.518;2023-03-20T01:31:45;8.10;99.90
45807;DHT22;31507;51.494;7.518;2023-03-20T01:34:10;8.10;99.90
45807;DHT22;31507;51.494;7.518;2023-03-20T01:36:37;8.00;99.90
45807;DHT22;31507;51.494;7.518;2023-03-20T01:39:03;8.00;99.90
45807;DHT22;31507;51.494;7.518;2023-03-20T01:41:30;8.00;99.90
45807;DHT22;31507;51.494;7.518;2023-03-20T01:43:57;8.00;99.90
45807;DHT22;31507;51.494;7.518;2023-03-20T01:46:29;8.00;99.90
45807;DHT22;31507;51.494;7.518;2023-03-20T01:51:31;8.00;99.90
45807;DHT22;31507;51.494;7.518;2023-03-20T01:54:04;8.00;99.90
45807;DHT22;31507;51.494;7.518;2023-03-20T01:56:38;8.00;99.90
45807;DHT22;31507;51.494;7.518;2023-03-20T01:59:19;8.00;99.90
45807;DHT22;31507;51.494;7.518;2023-03-20T02:01:46;8.00;99.90
45807;DHT22;31507;51.494;7.518;2023-03-20T02:04:13;8.00;99.90
45807;DHT22;31507;51.494;7.518;2023-03-20T02:06:39;8.00;99.90
45807;DHT22;31507;51.494;7.518;2023-03-20T02:09:06;8.00;99.90
45807;DHT22;31507;51.494;7.518;2023-03-20T02:11:33;8.00;99.90
45807;DHT22;31507;51.494;7.518;2023-03-20T02:14:01;8.00;99.90
45807;DHT22;31507;51.494;7.518;2023-03-20T02:16:27;8.00;99.90
45807;DHT22;31507;51.494;7.518;2023-03-20T02:18:54;8.00;99.90
45807;DHT22;31507;51.494;7.518;2023-03-20T02:21:52;8.00;99.90
45807;DHT22;31507;51.494;7.518;2023-03-20T02:33:32;7.90;99.90
45807;DHT22;31507;51.494;7.518;2023-03-20T02:40:04;7.90;99.90
45807;DHT22;31507;51.494;7.518;2023-03-20T02:42:21;7.90;99.90
45807;DHT22;31507;51.494;7.518;2023-03-20T02:44:52;7.80;99.90
45807;DHT22;31507;51.494;7.518;2023-03-20T02:47:37;7.80;99.90
45807;DHT22;31507;51.494;7.518;2023-03-20T02:50:33;7.80;99.90
45807;DHT22;31507;51.494;7.518;2023-03-20T02:53:34;7.80;99.90
45807;DHT22;31507;51.494;7.518;2023-03-20T02:56:16;7.70;99.90
45807;DHT22;31507;51.494;7.518;2023-03-20T02:58:52;7.70;99.90
45807;DHT22;31507;51.494;7.518;2023-03-20T03:01:29;7.70;99.90
45807;DHT22;31507;51.494;7.518;2023-03-20T03:03:56;7.70;99.90
45807;DHT22;31507;51.494;7.518;2023-03-20T03:06:26;7.70;99.90
45807;DHT22;31507;51.494;7.518;2023-03-20T03:09:09;7.70;99.90
45807;DHT22;31507;51.494;7.518;2023-03-20T03:11:40;7.70;99.90
45807;DHT22;31507;51.494;7.518;2023-03-20T03:14:14;7.70;99.90
45807;DHT22;31507;51.494;7.518;2023-03-20T03:16:41;7.70;99.90
45807;DHT22;31507;51.494;7.518;2023-03-20T03:19:18;7.60;99.90
45807;DHT22;31507;51.494;7.518;2023-03-20T03:21:46;7.60;99.90
45807;DHT22;31507;51.494;7.518;2023-03-20T03:24:26;7.60;99.90
45807;DHT22;31507;51.494;7.518;2023-03-20T03:26:58;7.60;99.90
45807;DHT22;31507;51.494;7.518;2023-03-20T03:29:27;7.60;99.90
45807;DHT22;31507;51.494;7.518;2023-03-20T03:31:55;7.60;99.90
45807;DHT22;31507;51.494;7.518;2023-03-20T03:34:21;7.60;99.90
45807;DHT22;31507;51.494;7.518;2023-03-20T03:37:03;7.50;99.90
45807;DHT22;31507;51.494;7.518;2023-03-20T03:42:49;7.50;99.90
45807;DHT22;31507;51.494;7.518;2023-03-20T03:45:30;7.50;99.90
45807;DHT22;31507;51.494;7.518;2023-03-20T03:48:31;7.40;99.90
45807;DHT22;31507;51.494;7.518;2023-03-20T03:51:00;7.40;99.90
45807;DHT22;31507;51.494;7.518;2023-03-20T03:53:35;7.30;99.90
45807;DHT22;31507;51.494;7.518;2023-03-20T03:56:04;7.30;99.90
45807;DHT22;31507;51.494;7.518;2023-03-20T04:01:32;7.30;99.90
45807;DHT22;31507;51.494;7.518;2023-03-20T04:04:05;7.20;99.90
45807;DHT22;31507;51.494;7.518;2023-03-20T04:06:31;7.20;99.90
45807;DHT22;31507;51.494;7.518;2023-03-20T04:08:57;7.10;99.90
45807;DHT22;31507;51.494;7.518;2023-03-20T04:11:25;7.10;99.90
45807;DHT22;31507;51.494;7.518;2023-03-20T04:13:52;7.10;99.90
45807;DHT22;31507;51.494;7.518;2023-03-20T04:16:20;7.10;99.90
45807;DHT22;31507;51.494;7.518;2023-03-20T04:18:46;7.10;99.90
45807;DHT22;31507;51.494;7.518;2023-03-20T04:21:12;7.00;99.90
45807;DHT22;31507;51.494;7.518;2023-03-20T04:23:40;7.10;99.90
45807;DHT22;31507;51.494;7.518;2023-03-20T04:26:06;7.10;99.90
45807;DHT22;31507;51.494;7.518;2023-03-20T04:28:32;7.10;99.90
45807;DHT22;31507;51.494;7.518;2023-03-20T04:30:59;7.00;99.90
45807;DHT22;31507;51.494;7.518;2023-03-20T04:33:26;7.00;99.90
45807;DHT22;31507;51.494;7.518;2023-03-20T04:35:53;7.00;99.90
45807;DHT22;31507;51.494;7.518;2023-03-20T04:38:19;7.00;99.90
45807;DHT22;31507;51.494;7.518;2023-03-20T04:40:45;7.00;99.90
45807;DHT22;31507;51.494;7.518;2023-03-20T04:43:12;7.10;99.90
45807;DHT22;31507;51.494;7.518;2023-03-20T04:45:38;7.00;99.90
45807;DHT22;31507;51.494;7.518;2023-03-20T04:48:04;7.10;99.90
45807;DHT22;31507;51.494;7.518;2023-03-20T04:50:30;7.10;99.90
45807;DHT22;31507;51.494;7.518;2023-03-20T04:52:56;7.10;99.90
45807;DHT22;31507;51.494;7.518;2023-03-20T04:55:22;7.10;99.90
45807;DHT22;31507;51.494;7.518;2023-03-20T04:57:48;7.10;99.90
45807;DHT22;31507;51.494;7.518;2023-03-20T05:00:15;7.00;99.90
45807;DHT22;31507;51.494;7.518;2023-03-20T05:02:42;7.00;99.90
45807;DHT22;31507;51.494;7.518;2023-03-20T05:05:08;7.00;99.90
45807;DHT22;31507;51.494;7.518;2023-03-20T05:07:33;7.00;99.90
45807;DHT22;31507;51.494;7.518;2023-03-20T05:09:59;6.90;99.90
45807;DHT22;31507;51.494;7.518;2023-03-20T05:12:25;6.90;99.90
45807;DHT22;31507;51.494;7.518;2023-03-20T05:14:51;6.90;99.90
45807;DHT22;31507;51.494;7.518;2023-03-20T05:17:19;6.90;99.90
45807;DHT22;31507;51.494;7.518;2023-03-20T05:19:45;6.90;99.90
45807;DHT22;31507;51.494;7.518;2023-03-20T05:22:12;6.90;99.90
45807;DHT22;31507;51.494;7.518;2023-03-20T05:24:37;6.90;99.90
45807;DHT22;31507;51.494;7.518;2023-03-20T05:27:03;6.90;99.90
45807;DHT22;31507;51.494;7.518;2023-03-20T05:29:29;6.90;99.90
45807;DHT22;31507;51.494;7.518;2023-03-20T05:31:54;6.90;99.90
45807;DHT22;31507;51.494;7.518;2023-03-20T05:34:20;6.90;99.90
45807;DHT22;31507;51.494;7.518;2023-03-20T05:36:46;6.90;99.90
45807;DHT22;31507;51.494;7.518;2023-03-20T05:39:12;6.90;99.90
45807;DHT22;31507;51.494;7.518;2023-03-20T05:41:37;6.80;99.90
45807;DHT22;31507;51.494;7.518;2023-03-20T05:44:03;6.80;99.90
45807;DHT22;31507;51.494;7.518;2023-03-20T05:46:29;6.80;99.90
45807;DHT22;31507;51.494;7.518;2023-03-20T05:48:54;6.80;99.90
45807;DHT22;31507;51.494;7.518;2023-03-20T05:51:20;6.80;99.90
45807;DHT22;31507;51.494;7.518;2023-03-20T05:53:46;6.80;99.90
45807;DHT22;31507;51.494;7.518;2023-03-20T05:56:12;6.80;99.90
45807;DHT22;31507;51.494;7.518;2023-03-20T05:58:37;6.70;99.90
45807;DHT22;31507;51.494;7.518;2023-03-20T06:01:03;6.80;99.90
45807;DHT22;31507;51.494;7.518;2023-03-20T06:03:29;6.80;99.90
45807;DHT22;31507;51.494;7.518;2023-03-20T06:05:55;6.80;99.90
45807;DHT22;31507;51.494;7.518;2023-03-20T06:08:21;6.70;99.90
45807;DHT22;31507;51.494;7.518;2023-03-20T06:10:49;6.80;99.90
45807;DHT22;31507;51.494;7.518;2023-03-20T06:13:14;6.70;99.90
45807;DHT22;31507;51.494;7.518;2023-03-20T06:15:40;6.70;99.90
45807;DHT22;31507;51.494;7.518;2023-03-20T06:18:06;6.70;99.90
45807;DHT22;31507;51.494;7.518;2023-03-20T06:20:32;6.70;99.90
45807;DHT22;31507;51.494;7.518;2023-03-20T06:22:57;6.70;99.90
45807;DHT22;31507;51.494;7.518;2023-03-20T06:25:23;6.70;99.90
45807;DHT22;31507;51.494;7.518;2023-03-20T06:27:49;6.70;99.90
45807;DHT22;31507;51.494;7.518;2023-03-20T06:30:15;6.70;99.90
45807;DHT22;31507;51.494;7.518;2023-03-20T06:32:41;6.80;99.90
45807;DHT22;31507;51.494;7.518;2023-03-20T06:35:08;6.80;99.90
45807;DHT22;31507;51.494;7.518;2023-03-20T06:37:34;6.80;99.90
45807;DHT22;31507;51.494;7.518;2023-03-20T06:40:01;6.90;99.90
45807;DHT22;31507;51.494;7.518;2023-03-20T06:42:28;6.90;99.90
45807;DHT22;31507;51.494;7.518;2023-03-20T06:44:53;6.90;99.90
45807;DHT22;31507;51.494;7.518;2023-03-20T06:47:19;6.90;99.90
45807;DHT22;31507;51.494;7.518;2023-03-20T06:49:45;6.90;99.90
45807;DHT22;31507;51.494;7.518;2023-03-20T06:52:15;6.90;99.90
45807;DHT22;31507;51.494;7.518;2023-03-20T06:54:41;7.00;99.90
45807;DHT22;31507;51.494;7.518;2023-03-20T06:57:07;6.90;99.90
45807;DHT22;31507;51.494;7.518;2023-03-20T06:59:33;6.90;99.90
45807;DHT22;31507;51.494;7.518;2023-03-20T07:01:58;6.90;99.90
45807;DHT22;31507;51.494;7.518;2023-03-20T07:04:25;6.90;99.90
45807;DHT22;31507;51.494;7.518;2023-03-20T07:06:50;7.00;99.90
45807;DHT22;31507;51.494;7.518;2023-03-20T07:09:16;7.00;99.90
45807;DHT22;31507;51.494;7.518;2023-03-20T07:11:42;7.00;99.90
45807;DHT22;31507;51.494;7.518;2023-03-20T07:14:09;7.00;99.90
45807;DHT22;31507;51.494;7.518;2023-03-20T07:16:35;7.10;99.90
45807;DHT22;31507;51.494;7.518;2023-03-20T07:19:01;7.10;99.90
45807;DHT22;31507;51.494;7.518;2023-03-20T07:21:27;7.10;99.90
45807;DHT22;31507;51.494;7.518;2023-03-20T07:23:53;7.10;99.90
45807;DHT22;31507;51.494;7.518;2023-03-20T07:26:18;7.20;99.90
45807;DHT22;31507;51.494;7.518;2023-03-20T07:28:44;7.30;99.90
45807;DHT22;31507;51.494;7.518;2023-03-20T07:31:21;7.30;99.90
45807;DHT22;31507;51.494;7.518;2023-03-20T07:33:47;7.50;99.90
45807;DHT22;31507;51.494;7.518;2023-03-20T07:36:13;7.60;99.90
45807;DHT22;31507;51.494;7.518;2023-03-20T07:38:39;7.60;99.90
45807;DHT22;31507;51.494;7.518;2023-03-20T07:41:05;7.70;99.90
45807;DHT22;31507;51.494;7.518;2023-03-20T07:43:31;7.70;99.90
45807;DHT22;31507;51.494;7.518;2023-03-20T07:45:56;7.70;99.90
45807;DHT22;31507;51.494;7.518;2023-03-20T07:48:22;7.80;99.90
45807;DHT22;31507;51.494;7.518;2023-03-20T07:50:48;7.90;99.90
45807;DHT22;31507;51.494;7.518;2023-03-20T07:53:13;7.90;99.90
45807;DHT22;31507;51.494;7.518;2023-03-20T07:55:39;8.00;99.90
45807;DHT22;31507;51.494;7.518;2023-03-20T07:58:05;8.00;99.90
45807;DHT22;31507;51.494;7.518;2023-03-20T08:00:32;8.10;99.90
45807;DHT22;31507;51.494;7.518;2023-03-20T08:02:58;8.10;99.90
45807;DHT22;31507;51.494;7.518;2023-03-20T08:05:24;8.20;99.90
45807;DHT22;31507;51.494;7.518;2023-03-20T08:07:50;8.30;99.90
45807;DHT22;31507;51.494;7.518;2023-03-20T08:10:16;8.50;99.90
45807;DHT22;31507;51.494;7.518;2023-03-20T08:12:42;8.70;99.90
45807;DHT22;31507;51.494;7.518;2023-03-20T08:15:08;8.80;99.90
45807;DHT22;31507;51.494;7.518;2023-03-20T08:17:34;8.90;99.90
45807;DHT22;31507;51.494;7.518;2023-03-20T08:20:00;9.00;99.90
45807;DHT22;31507;51.494;7.518;2023-03-20T08:22:25;9.10;99.90
45807;DHT22;31507;51.494;7.518;2023-03-20T08:24:51;9.10;99.90
45807;DHT22;31507;51.494;7.518;2023-03-20T08:27:16;9.00;99.90
45807;DHT22;31507;51.494;7.518;2023-03-20T08:29:42;8.90;99.90
45807;DHT22;31507;51.494;7.518;2023-03-20T08:32:08;8.80;99.90
45807;DHT22;31507;51.494;7.518;2023-03-20T08:34:34;8.80;99.90
45807;DHT22;31507;51.494;7.518;2023-03-20T08:37:03;8.80;99.90
45807;DHT22;31507;51.494;7.518;2023-03-20T08:39:29;8.90;99.90
45807;DHT22;31507;51.494;7.518;2023-03-20T08:41:55;8.80;99.90
45807;DHT22;31507;51.494;7.518;2023-03-20T08:44:20;8.70;99.90
45807;DHT22;31507;51.494;7.518;2023-03-20T08:46:46;8.70;99.90
45807;DHT22;31507;51.494;7.518;2023-03-20T08:49:12;8.80;99.90
45807;DHT22;31507;51.494;7.518;2023-03-20T08:51:37;8.80;99.90
45807;DHT22;31507;51.494;7.518;2023-03-20T08:54:03;8.90;99.90
45807;DHT22;31507;51.494;7.518;2023-03-20T08:56:29;8.90;99.90
45807;DHT22;31507;51.494;7.518;2023-03-20T08:58:54;8.90;99.90
45807;DHT22;31507;51.494;7.518;2023-03-20T09:01:20;9.00;99.90
45807;DHT22;31507;51.494;7.518;2023-03-20T09:03:46;8.90;99.90
45807;DHT22;31507;51.494;7.518;2023-03-20T09:06:12;8.90;99.90
45807;DHT22;31507;51.494;7.518;2023-03-20T09:08:38;9.00;99.90
45807;DHT22;31507;51.494;7.518;2023-03-20T09:11:04;8.90;99.90
45807;DHT22;31507;51.494;7.518;2023-03-20T09:13:30;8.90;99.90
45807;DHT22;31507;51.494;7.518;2023-03-20T09:15:56;9.00;99.90
45807;DHT22;31507;51.494;7.518;2023-03-20T09:18:22;9.10;99.90
45807;DHT22;31507;51.494;7.518;2023-03-20T09:20:48;9.20;99.90
45807;DHT22;31507;51.494;7.518;2023-03-20T09:23:15;9.10;99.90
45807;DHT22;31507;51.494;7.518;2023-03-20T09:25:40;9.00;99.90
45807;DHT22;31507;51.494;7.518;2023-03-20T09:28:06;9.00;99.90
45807;DHT22;31507;51.494;7.518;2023-03-20T09:30:32;8.90;99.90
45807;DHT22;31507;51.494;7.518;2023-03-20T09:32:58;8.90;99.90
45807;DHT22;31507;51.494;7.518;2023-03-20T09:35:23;8.90;99.90
45807;DHT22;31507;51.494;7.518;2023-03-20T09:37:49;8.80;99.90
45807;DHT22;31507;51.494;7.518;2023-03-20T09:53:57;8.90;99.90
45807;DHT22;31507;51.494;7.518;2023-03-20T09:56:25;8.80;99.90
45807;DHT22;31507;51.494;7.518;2023-03-20T09:58:57;8.90;99.90
45807;DHT22;31507;51.494;7.518;2023-03-20T10:01:26;9.00;99.90
45807;DHT22;31507;51.494;7.518;2023-03-20T10:04:06;8.90;99.90
45807;DHT22;31507;51.494;7.518;2023-03-20T10:06:33;8.90;99.90
45807;DHT22;31507;51.494;7.518;2023-03-20T10:08:59;9.00;99.90
45807;DHT22;31507;51.494;7.518;2023-03-20T10:14:42;9.00;99.90
45807;DHT22;31507;51.494;7.518;2023-03-20T10:17:29;9.10;99.90
45807;DHT22;31507;51.494;7.518;2023-03-20T10:20:10;9.20;99.90
45807;DHT22;31507;51.494;7.518;2023-03-20T10:22:47;9.20;99.90
45807;DHT22;31507;51.494;7.518;2023-03-20T10:25:30;9.20;99.90
45807;DHT22;31507;51.494;7.518;2023-03-20T10:28:02;9.30;99.90
45807;DHT22;31507;51.494;7.518;2023-03-20T10:30:48;9.40;99.90
45807;DHT22;31507;51.494;7.518;2023-03-20T10:39:09;9.30;99.90
45807;DHT22;31507;51.494;7.518;2023-03-20T10:41:40;9.30;99.90
45807;DHT22;31507;51.494;7.518;2023-03-20T10:44:15;9.40;99.90
45807;DHT22;31507;51.494;7.518;2023-03-20T10:46:49;9.50;99.20
45807;DHT22;31507;51.494;7.518;2023-03-20T10:52:01;9.40;99.80
45807;DHT22;31507;51.494;7.518;2023-03-20T10:54:34;9.50;99.30
45807;DHT22;31507;51.494;7.518;2023-03-20T10:57:05;9.50;98.20
45807;DHT22;31507;51.494;7.518;2023-03-20T10:59:41;9.50;98.10
45807;DHT22;31507;51.494;7.518;2023-03-20T11:02:13;9.50;97.80
45807;DHT22;31507;51.494;7.518;2023-03-20T11:04:39;9.60;98.20
45807;DHT22;31507;51.494;7.518;2023-03-20T11:09:42;9.50;97.80
45807;DHT22;31507;51.494;7.518;2023-03-20T11:12:16;9.50;97.40
45807;DHT22;31507;51.494;7.518;2023-03-20T11:14:43;9.50;97.50
45807;DHT22;31507;51.494;7.518;2023-03-20T11:17:10;9.30;98.00
45807;DHT22;31507;51.494;7.518;2023-03-20T11:19:39;9.30;97.80
45807;DHT22;31507;51.494;7.518;2023-03-20T11:22:23;9.30;97.90
45807;DHT22;31507;51.494;7.518;2023-03-20T11:24:51;9.40;98.30
45807;DHT22;31507;51.494;7.518;2023-03-20T11:27:24;9.50;97.90
45807;DHT22;31507;51.494;7.518;2023-03-20T11:29:51;9.40;96.60
45807;DHT22;31507;51.494;7.518;2023-03-20T11:34:53;9.50;97.10
45807;DHT22;31507;51.494;7.518;2023-03-20T11:37:27;9.50;96.70
45807;DHT22;31507;51.494;7.518;2023-03-20T11:39:58;9.60;96.30
45807;DHT22;31507;51.494;7.518;2023-03-20T11:42:29;9.50;96.10
45807;DHT22;31507;51.494;7.518;2023-03-20T11:45:00;9.70;97.00
45807;DHT22;31507;51.494;7.518;2023-03-20T11:47:30;9.70;95.90
45807;DHT22;31507;51.494;7.518;2023-03-20T11:49:59;9.70;95.80
45807;DHT22;31507;51.494;7.518;2023-03-20T11:52:38;9.70;95.90
45807;DHT22;31507;51.494;7.518;2023-03-20T11:55:07;9.70;94.80
45807;DHT22;31507;51.494;7.518;2023-03-20T11:57:48;9.90;95.00
45807;DHT22;31507;51.494;7.518;2023-03-20T12:00:22;10.00;94.00
45807;DHT22;31507;51.494;7.518;2023-03-20T12:02:48;10.20;93.60
45807;DHT22;31507;51.494;7.518;2023-03-20T12:07:59;10.30;93.40
45807;DHT22;31507;51.494;7.518;2023-03-20T12:10:30;10.60;93.10
45807;DHT22;31507;51.494;7.518;2023-03-20T12:15:43;10.50;91.50
45807;DHT22;31507;51.494;7.518;2023-03-20T12:18:30;10.30;92.10
45807;DHT22;31507;51.494;7.518;2023-03-20T12:21:11;10.30;92.10
45807;DHT22;31507;51.494;7.518;2023-03-20T12:23:42;10.10;92.00
45807;DHT22;31507;51.494;7.518;2023-03-20T12:26:44;10.00;92.30
45807;DHT22;31507;51.494;7.518;2023-03-20T12:29:45;9.90;91.90
45807;DHT22;31507;51.494;7.518;2023-03-20T12:32:29;10.00;92.90
45807;DHT22;31507;51.494;7.518;2023-03-20T12:35:09;9.90;92.40
45807;DHT22;31507;51.494;7.518;2023-03-20T12:37:36;9.80;92.80
45807;DHT22;31507;51.494;7.518;2023-03-20T12:40:02;9.70;93.40
45807;DHT22;31507;51.494;7.518;2023-03-20T12:42:35;9.70;93.60
45807;DHT22;31507;51.494;7.518;2023-03-20T12:48:14;9.80;94.20
45807;DHT22;31507;51.494;7.518;2023-03-20T12:50:54;9.60;94.80
45807;DHT22;31507;51.494;7.518;2023-03-20T12:59:19;9.20;96.50
45807;DHT22;31507;51.494;7.518;2023-03-20T13:01:54;9.20;96.80
45807;DHT22;31507;51.494;7.518;2023-03-20T13:04:41;9.20;96.90
45807;DHT22;31507;51.494;7.518;2023-03-20T13:07:21;9.10;96.90
45807;DHT22;31507;51.494;7.518;2023-03-20T13:20:55;9.20;97.70
45807;DHT22;31507;51.494;7.518;2023-03-20T13:31:24;9.10;98.30
45807;DHT22;31507;51.494;7.518;2023-03-20T13:33:58;9.00;98.50
45807;DHT22;31507;51.494;7.518;2023-03-20T13:39:30;8.90;99.10
45807;DHT22;31507;51.494;7.518;2023-03-20T13:41:58;8.90;99.00
45807;DHT22;31507;51.494;7.518;2023-03-20T13:44:28;8.80;98.90
45807;DHT22;31507;51.494;7.518;2023-03-20T13:47:04;8.90;99.30
45807;DHT22;31507;51.494;7.518;2023-03-20T13:49:47;8.90;99.50
45807;DHT22;31507;51.494;7.518;2023-03-20T13:52:21;8.80;98.90
45807;DHT22;31507;51.494;7.518;2023-03-20T14:00:52;8.70;99.90
45807;DHT22;31507;51.494;7.518;2023-03-20T14:03:31;8.60;99.90
45807;DHT22;31507;51.494;7.518;2023-03-20T14:05:57;8.70;99.90
45807;DHT22;31507;51.494;7.518;2023-03-20T14:13:50;8.80;99.90
45807;DHT22;31507;51.494;7.518;2023-03-20T14:16:18;8.70;99.90
45807;DHT22;31507;51.494;7.518;2023-03-20T14:18:47;8.60;99.90
45807;DHT22;31507;51.494;7.518;2023-03-20T14:21:18;8.40;99.90
45807;DHT22;31507;51.494;7.518;2023-03-20T14:23:51;8.40;99.90
45807;DHT22;31507;51.494;7.518;2023-03-20T14:26:34;8.50;99.90
45807;DHT22;31507;51.494;7.518;2023-03-20T14:29:19;8.50;99.90
45807;DHT22;31507;51.494;7.518;2023-03-20T14:31:48;8.60;99.90
45807;DHT22;31507;51.494;7.518;2023-03-20T14:34:22;8.70;99.90
45807;DHT22;31507;51.494;7.518;2023-03-20T14:37:02;8.80;99.90
45807;DHT22;31507;51.494;7.518;2023-03-20T14:39:53;8.90;99.90
45807;DHT22;31507;51.494;7.518;2023-03-20T14:42:51;8.80;99.90
45807;DHT22;31507;51.494;7.518;2023-03-20T14:45:35;8.90;99.90
45807;DHT22;31507;51.494;7.518;2023-03-20T14:53:40;9.00;99.90
45807;DHT22;31507;51.494;7.518;2023-03-20T14:56:13;9.00;99.90
45807;DHT22;31507;51.494;7.518;2023-03-20T15:06:50;9.10;99.90
45807;DHT22;31507;51.494;7.518;2023-03-20T15:09:19;9.20;99.90
45807;DHT22;31507;51.494;7.518;2023-03-20T15:11:47;9.30;99.90
45807;DHT22;31507;51.494;7.518;2023-03-20T15:14:21;9.30;99.90
45807;DHT22;31507;51.494;7.518;2023-03-20T15:16:56;9.30;99.90
45807;DHT22;31507;51.494;7.518;2023-03-20T15:19:22;9.30;99.90
45807;DHT22;31507;51.494;7.518;2023-03-20T15:21:48;9.20;99.90
45807;DHT22;31507;51.494;7.518;2023-03-20T15:24:24;9.10;99.90
45807;DHT22;31507;51.494;7.518;2023-03-20T15:26:54;9.00;99.90
45807;DHT22;31507;51.494;7.518;2023-03-20T15:29:21;8.90;99.90
45807;DHT22;31507;51.494;7.518;2023-03-20T15:31:54;8.90;99.90
45807;DHT22;31507;51.494;7.518;2023-03-20T15:34:23;8.80;99.90
45807;DHT22;31507;51.494;7.518;2023-03-20T15:36:51;8.70;99.90
45807;DHT22;31507;51.494;7.518;2023-03-20T15:39:22;8.60;99.90
45807;DHT22;31507;51.494;7.518;2023-03-20T15:41:57;8.60;99.90
45807;DHT22;31507;51.494;7.518;2023-03-20T15:44:37;8.60;99.90
45807;DHT22;31507;51.494;7.518;2023-03-20T15:49:38;8.50;99.90
45807;DHT22;31507;51.494;7.518;2023-03-20T15:52:18;8.40;99.90
45807;DHT22;31507;51.494;7.518;2023-03-20T15:54:47;8.40;99.90
45807;DHT22;31507;51.494;7.518;2023-03-20T15:57:30;8.40;99.90
45807;DHT22;31507;51.494;7.518;2023-03-20T15:59:57;8.40;99.90
45807;DHT22;31507;51.494;7.518;2023-03-20T16:02:23;8.30;99.90
45807;DHT22;31507;51.494;7.518;2023-03-20T16:04:51;8.30;99.90
45807;DHT22;31507;51.494;7.518;2023-03-20T16:07:21;8.30;99.90
45807;DHT22;31507;51.494;7.518;2023-03-20T16:09:48;8.30;99.90
45807;DHT22;31507;51.494;7.518;2023-03-20T16:12:15;8.30;99.90
45807;DHT22;31507;51.494;7.518;2023-03-20T16:14:43;8.30;99.90
45807;DHT22;31507;51.494;7.518;2023-03-20T16:17:12;8.30;99.90
45807;DHT22;31507;51.494;7.518;2023-03-20T16:19:38;8.30;99.90
45807;DHT22;31507;51.494;7.518;2023-03-20T16:22:19;8.30;99.90
45807;DHT22;31507;51.494;7.518;2023-03-20T16:24:48;8.20;99.90
45807;DHT22;31507;51.494;7.518;2023-03-20T16:27:22;8.20;99.90
45807;DHT22;31507;51.494;7.518;2023-03-20T16:29:55;8.20;99.90
45807;DHT22;31507;51.494;7.518;2023-03-20T16:33:11;8.20;99.90
45807;DHT22;31507;51.494;7.518;2023-03-20T16:35:48;8.20;99.90
45807;DHT22;31507;51.494;7.518;2023-03-20T16:38:22;8.20;99.90
45807;DHT22;31507;51.494;7.518;2023-03-20T16:40:52;8.20;99.90
45807;DHT22;31507;51.494;7.518;2023-03-20T16:43:22;8.20;99.90
45807;DHT22;31507;51.494;7.518;2023-03-20T16:45:53;8.30;99.90
45807;DHT22;31507;51.494;7.518;2023-03-20T16:48:33;8.20;99.90
45807;DHT22;31507;51.494;7.518;2023-03-20T16:51:01;8.20;99.90
45807;DHT22;31507;51.494;7.518;2023-03-20T16:53:40;8.30;99.90
45807;DHT22;31507;51.494;7.518;2023-03-20T16:56:21;8.20;99.90
45807;DHT22;31507;51.494;7.518;2023-03-20T16:58:48;8.20;99.90
45807;DHT22;31507;51.494;7.518;2023-03-20T17:01:17;8.20;99.90
45807;DHT22;31507;51.494;7.518;2023-03-20T17:03:54;8.20;99.90
45807;DHT22;31507;51.494;7.518;2023-03-20T17:08:50;8.20;99.90
45807;DHT22;31507;51.494;7.518;2023-03-20T17:11:29;8.20;99.90
45807;DHT22;31507;51.494;7.518;2023-03-20T17:13:55;8.20;99.90
45807;DHT22;31507;51.494;7.518;2023-03-20T17:16:21;8.20;99.90
45807;DHT22;31507;51.494;7.518;2023-03-20T17:18:58;8.20;99.90
45807;DHT22;31507;51.494;7.518;2023-03-20T17:21:24;8.20;99.90
45807;DHT22;31507;51.494;7.518;2023-03-20T17:23:50;8.20;99.90
45807;DHT22;31507;51.494;7.518;2023-03-20T17:26:15;8.10;99.90
45807;DHT22;31507;51.494;7.518;2023-03-20T17:28:41;8.20;99.90
45807;DHT22;31507;51.494;7.518;2023-03-20T17:31:12;8.10;99.90
45807;DHT22;31507;51.494;7.518;2023-03-20T17:33:41;8.10;99.90
45807;DHT22;31507;51.494;7.518;2023-03-20T17:36:27;8.10;99.90
45807;DHT22;31507;51.494;7.518;2023-03-20T17:38:55;8.00;99.90
45807;DHT22;31507;51.494;7.518;2023-03-20T17:41:21;8.10;99.90
45807;DHT22;31507;51.494;7.518;2023-03-20T17:43:48;8.10;99.90
45807;DHT22;31507;51.494;7.518;2023-03-20T17:46:18;8.00;99.90
45807;DHT22;31507;51.494;7.518;2023-03-20T17:48:48;8.10;99.90
45807;DHT22;31507;51.494;7.518;2023-03-20T17:51:14;8.00;99.90
45807;DHT22;31507;51.494;7.518;2023-03-20T17:53:40;8.00;99.90
45807;DHT22;31507;51.494;7.518;2023-03-20T17:56:15;8.00;99.90
45807;DHT22;31507;51.494;7.518;2023-03-20T17:58:41;8.00;99.90
45807;DHT22;31507;51.494;7.518;2023-03-20T18:01:11;8.10;99.90
45807;DHT22;31507;51.494;7.518;2023-03-20T18:03:37;8.10;99.90
45807;DHT22;31507;51.494;7.518;2023-03-20T18:06:04;8.10;99.90
45807;DHT22;31507;51.494;7.518;2023-03-20T18:08:30;8.10;99.90